Time;durP1;ratioP1;P1;durP2;ratioP2;P2;SDS_P1;SDS_P2;PMS_P1;PMS_P2;Temp;Humidity;BMP_temperature;BMP_pressure;BME280_temperature;BME280_humidity;BME280_pressure;Samples;Min_cycle;Max_cycle;Signal;HPM_P1;HPM_P2
2022/03/09 00:00:47;;;;;;;;;;;4.00;71.70;;;;;;5086495;28;19920;-72
2022/03/09 00:03:12;;;;;;;;;;;4.00;71.80;;;;;;5084335;28;19908;-71
2022/03/09 00:05:38;;;;;;;;;;;4.00;71.90;;;;;;5086625;28;19962;-71
2022/03/09 00:08:03;;;;;;;;;;;3.90;71.80;;;;;;5085418;28;19920;-72
2022/03/09 00:10:29;;;;;;;;;;;3.90;71.80;;;;;;5086440;28;19916;-72
2022/03/09 00:12:54;;;;;;;;;;;4.00;72.00;;;;;;5084734;28;19916;-71
2022/03/09 00:15:20;;;;;;;;;;;4.00;72.00;;;;;;5087180;28;20031;-72
2022/03/09 00:17:46;;;;;;;;;;;3.90;71.80;;;;;;5084935;28;19916;-71
2022/03/09 00:20:11;;;;;;;;;;;3.90;71.80;;;;;;5086993;28;20585;-72
2022/03/09 00:22:37;;;;;;;;;;;3.90;71.80;;;;;;5084984;28;19965;-72
2022/03/09 00:25:02;;;;;;;;;;;3.90;71.90;;;;;;5084998;28;20277;-72
2022/03/09 00:27:30;;;;;;;;;;;3.90;71.90;;;;;;5087325;28;19915;-71
2022/03/09 00:29:56;;;;;;;;;;;3.80;71.80;;;;;;5066060;28;19923;-71
2022/03/09 00:32:21;;;;;;;;;;;3.80;71.80;;;;;;5084044;28;19995;-71
2022/03/09 00:34:47;;;;;;;;;;;3.80;72.00;;;;;;5084517;28;19938;-72
2022/03/09 00:37:12;;;;;;;;;;;3.80;71.90;;;;;;5084563;28;19974;-71
2022/03/09 00:39:38;;;;;;;;;;;3.80;72.00;;;;;;5081780;28;21370;-71
2022/03/09 00:42:03;;;;;;;;;;;3.80;71.90;;;;;;5085530;28;19916;-71
2022/03/09 00:44:29;;;;;;;;;;;3.80;72.00;;;;;;5084472;28;19921;-72
2022/03/09 00:46:54;;;;;;;;;;;3.80;72.00;;;;;;5086852;28;19950;-71
2022/03/09 00:49:20;;;;;;;;;;;3.70;72.00;;;;;;5083578;28;19919;-72
2022/03/09 00:51:45;;;;;;;;;;;3.70;71.90;;;;;;5083974;28;19912;-71
2022/03/09 00:54:11;;;;;;;;;;;3.80;72.20;;;;;;5085524;28;19923;-71
2022/03/09 00:56:36;;;;;;;;;;;3.70;72.10;;;;;;5084990;28;19944;-71
2022/03/09 00:59:02;;;;;;;;;;;3.70;72.00;;;;;;5053810;28;20276;-72
2022/03/09 01:01:27;;;;;;;;;;;3.70;72.00;;;;;;5085414;28;19927;-72
2022/03/09 01:03:53;;;;;;;;;;;3.70;71.80;;;;;;5086240;28;20625;-71
2022/03/09 01:06:18;;;;;;;;;;;3.70;72.00;;;;;;5081445;28;19908;-71
2022/03/09 01:08:44;;;;;;;;;;;3.70;71.90;;;;;;5083586;28;19995;-72
2022/03/09 01:11:09;;;;;;;;;;;3.70;71.90;;;;;;5065086;28;19908;-71
2022/03/09 01:13:35;;;;;;;;;;;3.60;71.80;;;;;;5085387;28;21278;-72
2022/03/09 01:16:01;;;;;;;;;;;3.60;72.00;;;;;;5082418;28;19915;-71
2022/03/09 01:18:26;;;;;;;;;;;3.60;71.80;;;;;;5086254;28;19916;-71
2022/03/09 01:20:52;;;;;;;;;;;3.60;71.80;;;;;;5065952;28;20021;-71
2022/03/09 01:23:17;;;;;;;;;;;3.60;71.80;;;;;;5087243;28;20483;-71
2022/03/09 01:25:43;;;;;;;;;;;3.60;71.80;;;;;;5080963;28;19965;-72
2022/03/09 01:28:08;;;;;;;;;;;3.60;72.00;;;;;;5086592;28;19938;-72
2022/03/09 01:30:34;;;;;;;;;;;3.60;72.60;;;;;;5082189;28;19990;-71
2022/03/09 01:32:59;;;;;;;;;;;3.60;72.00;;;;;;5085887;28;19915;-72
2022/03/09 01:35:25;;;;;;;;;;;3.60;72.00;;;;;;5082131;28;19912;-72
2022/03/09 01:37:50;;;;;;;;;;;3.50;71.90;;;;;;5085406;28;19911;-71
2022/03/09 01:40:16;;;;;;;;;;;3.60;72.00;;;;;;5083294;28;20369;-71
2022/03/09 01:42:42;;;;;;;;;;;3.50;72.00;;;;;;5083890;28;19920;-71
2022/03/09 01:45:09;;;;;;;;;;;3.50;71.90;;;;;;5068095;28;20073;-72
2022/03/09 01:47:35;;;;;;;;;;;3.50;72.00;;;;;;5065013;28;20018;-71
2022/03/09 01:50:01;;;;;;;;;;;3.50;71.90;;;;;;5069610;28;19916;-71
2022/03/09 01:52:27;;;;;;;;;;;3.50;72.00;;;;;;5065703;28;19999;-71
2022/03/09 01:54:53;;;;;;;;;;;3.50;71.90;;;;;;5068123;28;20006;-72
2022/03/09 01:57:19;;;;;;;;;;;3.50;71.80;;;;;;5083962;28;19920;-72
2022/03/09 01:59:47;;;;;;;;;;;3.50;71.80;;;;;;5080853;28;19924;-72
2022/03/09 02:02:12;;;;;;;;;;;3.50;71.70;;;;;;5083628;28;19920;-71
2022/03/09 02:04:37;;;;;;;;;;;3.50;71.80;;;;;;5083892;28;20599;-71
2022/03/09 02:07:06;;;;;;;;;;;3.50;71.80;;;;;;5083568;28;19913;-71
2022/03/09 02:09:41;;;;;;;;;;;3.50;71.90;;;;;;5084442;28;19927;-72
2022/03/09 02:12:07;;;;;;;;;;;3.50;71.90;;;;;;5082839;28;19916;-72
2022/03/09 02:14:36;;;;;;;;;;;3.40;71.90;;;;;;5084558;28;19931;-72
2022/03/09 02:17:03;;;;;;;;;;;3.50;72.00;;;;;;5082897;28;19912;-70
2022/03/09 02:19:28;;;;;;;;;;;3.40;71.90;;;;;;5084046;28;20417;-72
2022/03/09 02:22:10;;;;;;;;;;;3.40;71.90;;;;;;5084194;28;19990;-71
2022/03/09 02:24:35;;;;;;;;;;;3.40;71.90;;;;;;5084323;28;19912;-71
2022/03/09 02:27:01;;;;;;;;;;;3.40;71.90;;;;;;5084698;28;19918;-71
2022/03/09 02:29:27;;;;;;;;;;;3.40;72.00;;;;;;5082097;28;19920;-72
2022/03/09 02:31:52;;;;;;;;;;;3.40;71.90;;;;;;5066344;28;19957;-71
2022/03/09 02:34:18;;;;;;;;;;;3.40;71.90;;;;;;5082394;28;19947;-71
2022/03/09 02:36:43;;;;;;;;;;;3.40;72.00;;;;;;5065177;28;19986;-71
2022/03/09 02:39:09;;;;;;;;;;;3.40;72.60;;;;;;5082119;28;19915;-72
2022/03/09 02:41:34;;;;;;;;;;;3.40;72.00;;;;;;5085464;28;19919;-71
2022/03/09 02:44:03;;;;;;;;;;;3.40;71.90;;;;;;5083212;28;20270;-72
2022/03/09 02:46:28;;;;;;;;;;;3.40;72.00;;;;;;5083454;28;19923;-72
2022/03/09 02:48:54;;;;;;;;;;;3.40;72.00;;;;;;5082563;28;19912;-71
2022/03/09 02:51:19;;;;;;;;;;;3.40;72.00;;;;;;5087330;28;19916;-71
2022/03/09 02:53:45;;;;;;;;;;;3.40;72.10;;;;;;5085694;28;20345;-71
2022/03/09 02:56:10;;;;;;;;;;;3.30;71.90;;;;;;5088247;28;19924;-71
2022/03/09 02:58:36;;;;;;;;;;;3.40;72.00;;;;;;5066651;28;19990;-71
2022/03/09 03:01:02;;;;;;;;;;;3.30;71.90;;;;;;5086068;28;19928;-71
2022/03/09 03:03:27;;;;;;;;;;;3.40;72.00;;;;;;5087459;28;20580;-72
2022/03/09 03:05:53;;;;;;;;;;;3.30;71.90;;;;;;5085609;28;19947;-71
2022/03/09 03:08:18;;;;;;;;;;;3.30;71.90;;;;;;5088890;28;20320;-71
2022/03/09 03:10:43;;;;;;;;;;;3.30;72.00;;;;;;5085493;28;19968;-72
2022/03/09 03:13:09;;;;;;;;;;;3.30;71.90;;;;;;5088875;28;20011;-71
2022/03/09 03:15:34;;;;;;;;;;;3.30;72.00;;;;;;5084608;28;20461;-71
2022/03/09 03:18:01;;;;;;;;;;;3.30;72.00;;;;;;5070042;28;19912;-71
2022/03/09 03:20:27;;;;;;;;;;;3.30;72.10;;;;;;5083750;28;19916;-71
2022/03/09 03:22:52;;;;;;;;;;;3.30;72.20;;;;;;5089297;28;20258;-71
2022/03/09 03:25:18;;;;;;;;;;;3.30;72.20;;;;;;5067913;28;20226;-71
2022/03/09 03:27:43;;;;;;;;;;;3.20;72.00;;;;;;5084909;28;19916;-71
2022/03/09 03:30:09;;;;;;;;;;;3.30;72.00;;;;;;5085057;28;20292;-71
2022/03/09 03:32:34;;;;;;;;;;;3.20;72.00;;;;;;5069242;28;20471;-71
2022/03/09 03:35:00;;;;;;;;;;;3.20;71.90;;;;;;5085030;28;20001;-71
2022/03/09 03:37:25;;;;;;;;;;;3.20;72.10;;;;;;5088098;28;20334;-71
2022/03/09 03:39:51;;;;;;;;;;;3.20;72.00;;;;;;5086286;28;20396;-71
2022/03/09 03:42:16;;;;;;;;;;;3.20;72.00;;;;;;5068910;28;19920;-71
2022/03/09 03:44:42;;;;;;;;;;;3.20;72.00;;;;;;5069338;28;19920;-71
2022/03/09 03:47:07;;;;;;;;;;;3.20;72.00;;;;;;5086337;28;19951;-71
2022/03/09 03:49:33;;;;;;;;;;;3.20;72.00;;;;;;5087419;28;20007;-71
2022/03/09 03:51:58;;;;;;;;;;;3.20;72.00;;;;;;5083640;28;19916;-71
2022/03/09 03:54:24;;;;;;;;;;;3.20;72.10;;;;;;5085164;28;19916;-71
2022/03/09 03:56:49;;;;;;;;;;;3.20;72.10;;;;;;5084550;28;19912;-72
2022/03/09 03:59:15;;;;;;;;;;;3.20;72.00;;;;;;5085769;28;20384;-71
2022/03/09 04:01:40;;;;;;;;;;;3.20;72.00;;;;;;5085520;28;19919;-72
2022/03/09 04:04:06;;;;;;;;;;;3.20;72.00;;;;;;5085328;28;20033;-71
2022/03/09 04:06:31;;;;;;;;;;;3.20;72.00;;;;;;5084741;28;19980;-72
2022/03/09 04:08:57;;;;;;;;;;;3.20;72.00;;;;;;5085077;28;19916;-72
2022/03/09 04:11:22;;;;;;;;;;;3.10;72.00;;;;;;5085934;28;19918;-71
2022/03/09 04:13:48;;;;;;;;;;;3.10;71.90;;;;;;5086217;28;20034;-71
2022/03/09 04:16:13;;;;;;;;;;;3.10;71.90;;;;;;5086784;28;19914;-72
2022/03/09 04:18:39;;;;;;;;;;;3.10;71.90;;;;;;5083813;28;20069;-72
2022/03/09 04:21:04;;;;;;;;;;;3.10;72.10;;;;;;5087479;28;20369;-72
2022/03/09 04:23:30;;;;;;;;;;;3.10;72.00;;;;;;5082469;28;20015;-72
2022/03/09 04:25:55;;;;;;;;;;;3.10;72.10;;;;;;5085218;28;19991;-71
2022/03/09 04:28:21;;;;;;;;;;;3.10;72.10;;;;;;5083388;28;19916;-71
2022/03/09 04:30:46;;;;;;;;;;;3.10;72.10;;;;;;5087513;28;20050;-71
2022/03/09 04:33:12;;;;;;;;;;;3.10;72.10;;;;;;5083618;28;19928;-71
2022/03/09 04:35:37;;;;;;;;;;;3.00;72.00;;;;;;5083828;28;19943;-71
2022/03/09 04:38:03;;;;;;;;;;;3.10;72.10;;;;;;5084993;28;19970;-71
2022/03/09 04:40:28;;;;;;;;;;;3.10;72.00;;;;;;5068176;28;19922;-71
2022/03/09 04:42:54;;;;;;;;;;;3.00;72.10;;;;;;5085132;28;19965;-72
2022/03/09 04:45:19;;;;;;;;;;;3.00;72.00;;;;;;5085997;28;19947;-71
2022/03/09 04:47:45;;;;;;;;;;;3.00;72.00;;;;;;5083530;28;19915;-71
2022/03/09 04:50:10;;;;;;;;;;;3.00;72.00;;;;;;5085240;28;19908;-71
2022/03/09 04:52:36;;;;;;;;;;;3.00;71.90;;;;;;5066653;28;20337;-71
2022/03/09 04:55:02;;;;;;;;;;;3.00;71.90;;;;;;5084237;28;19924;-72
2022/03/09 04:57:27;;;;;;;;;;;3.00;72.00;;;;;;5087175;28;19916;-71
2022/03/09 04:59:53;;;;;;;;;;;3.00;72.00;;;;;;5083044;28;19920;-71
2022/03/09 05:02:18;;;;;;;;;;;3.00;72.00;;;;;;5069355;28;19912;-71
2022/03/09 05:04:43;;;;;;;;;;;3.00;72.00;;;;;;5084038;28;20506;-72
2022/03/09 05:07:09;;;;;;;;;;;3.00;72.00;;;;;;5087544;28;19959;-71
2022/03/09 05:09:34;;;;;;;;;;;3.00;72.00;;;;;;5082996;28;19943;-72
2022/03/09 05:12:00;;;;;;;;;;;3.00;72.00;;;;;;5085558;28;19943;-71
2022/03/09 05:14:26;;;;;;;;;;;3.00;72.00;;;;;;5082949;28;19912;-71
2022/03/09 05:16:51;;;;;;;;;;;3.00;72.00;;;;;;5087525;28;19944;-71
2022/03/09 05:19:17;;;;;;;;;;;3.00;72.00;;;;;;5082546;28;19923;-72
2022/03/09 05:21:42;;;;;;;;;;;2.90;71.90;;;;;;5087387;28;19916;-71
2022/03/09 05:24:08;;;;;;;;;;;2.90;72.00;;;;;;5065629;28;19912;-71
2022/03/09 05:26:33;;;;;;;;;;;2.90;71.90;;;;;;5085838;28;19919;-71
2022/03/09 05:28:59;;;;;;;;;;;2.90;71.90;;;;;;5084270;28;19920;-71
2022/03/09 05:31:24;;;;;;;;;;;2.90;71.90;;;;;;5083850;28;20436;-71
2022/03/09 05:33:50;;;;;;;;;;;2.90;71.90;;;;;;5083565;28;20348;-71
2022/03/09 05:36:16;;;;;;;;;;;2.90;71.90;;;;;;5082668;28;19913;-72
2022/03/09 05:38:41;;;;;;;;;;;2.90;71.90;;;;;;5085991;28;20432;-71
2022/03/09 05:41:09;;;;;;;;;;;2.90;71.80;;;;;;5082509;28;20163;-71
2022/03/09 05:43:35;;;;;;;;;;;2.90;71.80;;;;;;5066548;28;19916;-71
2022/03/09 05:46:00;;;;;;;;;;;2.90;71.90;;;;;;5083637;28;19923;-71
2022/03/09 05:48:26;;;;;;;;;;;2.90;72.00;;;;;;5085493;28;20033;-72
2022/03/09 05:50:51;;;;;;;;;;;2.90;72.00;;;;;;5066807;28;19916;-71
2022/03/09 05:53:17;;;;;;;;;;;2.90;72.00;;;;;;5067042;28;19920;-71
2022/03/09 05:55:42;;;;;;;;;;;2.90;72.00;;;;;;5083442;28;19916;-71
2022/03/09 05:58:08;;;;;;;;;;;2.90;71.90;;;;;;5084116;28;19955;-71
2022/03/09 06:00:34;;;;;;;;;;;2.90;71.80;;;;;;5064225;28;19912;-71
2022/03/09 06:03:00;;;;;;;;;;;2.90;72.00;;;;;;5083425;28;19919;-71
2022/03/09 06:05:25;;;;;;;;;;;2.90;72.70;;;;;;5084012;28;19912;-71
2022/03/09 06:07:51;;;;;;;;;;;2.90;71.90;;;;;;5081054;28;20053;-71
2022/03/09 06:10:16;;;;;;;;;;;2.90;72.00;;;;;;5084713;28;19912;-71
2022/03/09 06:12:42;;;;;;;;;;;2.90;71.90;;;;;;5080438;28;19995;-71
2022/03/09 06:15:07;;;;;;;;;;;2.90;72.00;;;;;;5085160;28;19912;-72
2022/03/09 06:17:41;;;;;;;;;;;2.90;72.00;;;;;;5065177;28;19920;-72
2022/03/09 06:20:07;;;;;;;;;;;2.90;71.90;;;;;;5085277;28;19923;-71
2022/03/09 06:22:33;;;;;;;;;;;2.80;71.90;;;;;;5064953;28;20431;-71
2022/03/09 06:24:58;;;;;;;;;;;2.90;72.10;;;;;;5086440;28;19912;-71
2022/03/09 06:27:24;;;;;;;;;;;2.90;72.10;;;;;;5085501;28;20003;-71
2022/03/09 06:29:49;;;;;;;;;;;2.90;72.00;;;;;;5086927;28;20353;-71
2022/03/09 06:32:15;;;;;;;;;;;2.80;71.90;;;;;;5085466;28;19954;-71
2022/03/09 06:34:40;;;;;;;;;;;2.90;72.60;;;;;;5089651;28;19912;-71
2022/03/09 06:37:06;;;;;;;;;;;2.90;72.00;;;;;;5085284;28;19978;-72
2022/03/09 06:39:31;;;;;;;;;;;2.90;71.90;;;;;;5089689;28;19920;-71
2022/03/09 06:41:57;;;;;;;;;;;2.90;72.00;;;;;;5087783;28;19920;-71
2022/03/09 06:44:23;;;;;;;;;;;2.90;71.90;;;;;;5085782;28;19916;-71
2022/03/09 06:46:48;;;;;;;;;;;2.90;72.00;;;;;;5089661;28;20010;-71
2022/03/09 06:49:13;;;;;;;;;;;2.90;71.90;;;;;;5068198;28;19999;-71
2022/03/09 06:51:39;;;;;;;;;;;2.90;72.00;;;;;;5089119;28;19990;-71
2022/03/09 06:54:04;;;;;;;;;;;2.90;72.10;;;;;;5087005;28;19916;-71
2022/03/09 06:56:30;;;;;;;;;;;2.90;72.00;;;;;;5088857;28;19916;-72
2022/03/09 06:58:56;;;;;;;;;;;2.90;71.90;;;;;;5086899;28;19908;-71
2022/03/09 07:01:21;;;;;;;;;;;2.90;72.00;;;;;;5069943;28;19916;-71
2022/03/09 07:03:47;;;;;;;;;;;2.90;72.00;;;;;;5086642;28;19908;-71
2022/03/09 07:06:12;;;;;;;;;;;2.90;72.00;;;;;;5068333;28;19912;-71
2022/03/09 07:08:38;;;;;;;;;;;2.90;71.70;;;;;;5067840;28;19913;-71
2022/03/09 07:11:03;;;;;;;;;;;2.90;71.30;;;;;;5089840;28;20282;-71
2022/03/09 07:13:29;;;;;;;;;;;2.90;71.60;;;;;;5085008;28;19920;-71
2022/03/09 07:15:55;;;;;;;;;;;2.90;71.50;;;;;;5088094;28;19916;-71
2022/03/09 07:18:20;;;;;;;;;;;2.90;71.20;;;;;;5086257;28;20281;-71
2022/03/09 07:20:46;;;;;;;;;;;3.00;71.70;;;;;;5086524;28;19924;-71
2022/03/09 07:23:12;;;;;;;;;;;3.00;71.50;;;;;;5087515;28;19924;-72
2022/03/09 07:25:38;;;;;;;;;;;3.00;71.40;;;;;;5086878;28;19916;-71
2022/03/09 07:28:05;;;;;;;;;;;3.00;71.40;;;;;;5087090;28;19942;-72
2022/03/09 07:30:31;;;;;;;;;;;3.10;71.50;;;;;;5086323;28;19923;-71
2022/03/09 07:32:57;;;;;;;;;;;3.10;71.40;;;;;;5084397;28;19916;-71
2022/03/09 07:35:22;;;;;;;;;;;3.10;71.30;;;;;;5085782;28;20021;-71
2022/03/09 07:37:51;;;;;;;;;;;3.10;71.50;;;;;;5084732;28;20289;-71
2022/03/09 07:40:17;;;;;;;;;;;3.10;71.20;;;;;;5083560;28;19927;-71
2022/03/09 07:42:42;;;;;;;;;;;3.10;71.40;;;;;;5070321;28;19920;-72
2022/03/09 07:45:08;;;;;;;;;;;3.20;71.00;;;;;;5085065;28;19920;-71
2022/03/09 07:47:36;;;;;;;;;;;3.20;71.30;;;;;;5085262;28;19916;-71
2022/03/09 07:50:07;;;;;;;;;;;3.20;71.10;;;;;;5086803;28;20014;-71
2022/03/09 07:52:33;;;;;;;;;;;3.20;71.30;;;;;;5086477;28;19963;-71
2022/03/09 07:54:59;;;;;;;;;;;3.30;71.30;;;;;;5068359;28;19954;-71
2022/03/09 07:57:24;;;;;;;;;;;3.30;71.20;;;;;;5085320;28;20410;-71
2022/03/09 07:59:50;;;;;;;;;;;3.30;71.10;;;;;;5073035;28;19920;-71
2022/03/09 08:02:15;;;;;;;;;;;3.30;71.10;;;;;;5084696;28;19915;-72
2022/03/09 08:04:40;;;;;;;;;;;3.40;71.00;;;;;;5088203;28;19912;-72
2022/03/09 08:07:06;;;;;;;;;;;3.30;70.90;;;;;;5084740;28;19916;-71
2022/03/09 08:09:31;;;;;;;;;;;3.40;70.50;;;;;;5088021;28;20626;-72
2022/03/09 08:11:57;;;;;;;;;;;3.40;71.00;;;;;;5084294;28;20001;-71
2022/03/09 08:14:22;;;;;;;;;;;3.40;70.50;;;;;;5068923;28;19923;-71
2022/03/09 08:16:48;;;;;;;;;;;3.40;70.80;;;;;;5084006;28;19938;-71
2022/03/09 08:19:14;;;;;;;;;;;3.50;70.90;;;;;;5087887;28;19912;-72
2022/03/09 08:21:40;;;;;;;;;;;3.60;70.70;;;;;;5084897;28;19920;-72
2022/03/09 08:24:06;;;;;;;;;;;3.70;70.50;;;;;;5086782;28;19916;-71
2022/03/09 08:26:31;;;;;;;;;;;3.80;70.50;;;;;;5067145;28;19920;-71
2022/03/09 08:28:57;;;;;;;;;;;3.90;70.30;;;;;;5084822;28;20591;-71
2022/03/09 08:31:22;;;;;;;;;;;3.90;70.20;;;;;;5083654;28;19951;-71
2022/03/09 08:33:48;;;;;;;;;;;4.00;70.30;;;;;;5066337;28;20536;-71
2022/03/09 08:36:13;;;;;;;;;;;4.10;70.20;;;;;;5085385;28;19956;-72
2022/03/09 08:38:39;;;;;;;;;;;4.20;70.10;;;;;;5084061;28;19916;-72
2022/03/09 08:41:04;;;;;;;;;;;4.30;70.20;;;;;;5086279;28;19916;-72
2022/03/09 08:43:31;;;;;;;;;;;4.40;70.00;;;;;;5083244;28;19924;-72
2022/03/09 08:45:56;;;;;;;;;;;4.50;70.00;;;;;;5086257;28;20621;-72
2022/03/09 08:48:22;;;;;;;;;;;4.60;69.70;;;;;;5082844;28;19916;-72
2022/03/09 08:50:47;;;;;;;;;;;4.70;69.10;;;;;;5068015;28;19919;-72
2022/03/09 08:53:13;;;;;;;;;;;4.80;69.10;;;;;;5082665;28;19916;-72
2022/03/09 08:55:38;;;;;;;;;;;4.90;68.90;;;;;;5086869;28;19919;-71
2022/03/09 08:58:04;;;;;;;;;;;5.00;68.50;;;;;;5083215;28;20261;-72
2022/03/09 09:00:29;;;;;;;;;;;5.10;68.30;;;;;;5086656;28;19927;-72
2022/03/09 09:02:55;;;;;;;;;;;5.10;68.10;;;;;;5065718;28;19927;-72
2022/03/09 09:05:22;;;;;;;;;;;5.10;68.10;;;;;;5085998;28;19908;-72
2022/03/09 09:07:47;;;;;;;;;;;5.20;68.10;;;;;;5063906;28;19939;-72
2022/03/09 09:10:13;;;;;;;;;;;5.30;68.10;;;;;;5086475;28;19916;-72
2022/03/09 09:12:38;;;;;;;;;;;5.40;67.80;;;;;;5083736;28;19916;-72
2022/03/09 09:15:04;;;;;;;;;;;5.40;67.60;;;;;;5084715;28;19908;-72
2022/03/09 09:17:30;;;;;;;;;;;5.40;67.50;;;;;;5082795;28;20586;-72
2022/03/09 09:19:56;;;;;;;;;;;5.40;67.50;;;;;;5084225;28;19927;-72
2022/03/09 09:22:21;;;;;;;;;;;5.50;67.60;;;;;;5084200;28;20032;-71
2022/03/09 09:24:47;;;;;;;;;;;5.50;67.60;;;;;;5081283;28;19969;-72
2022/03/09 09:27:12;;;;;;;;;;;5.50;67.50;;;;;;5083942;28;19916;-72
2022/03/09 09:29:38;;;;;;;;;;;5.60;67.60;;;;;;5063875;28;19916;-72
2022/03/09 09:32:03;;;;;;;;;;;5.60;67.70;;;;;;5083330;28;19954;-72
2022/03/09 09:34:29;;;;;;;;;;;5.60;67.40;;;;;;5082426;28;19918;-72
2022/03/09 09:36:54;;;;;;;;;;;5.60;67.40;;;;;;5079895;28;19920;-71
2022/03/09 09:39:21;;;;;;;;;;;5.70;67.50;;;;;;5084107;28;20311;-72
2022/03/09 09:41:47;;;;;;;;;;;5.60;68.00;;;;;;5081993;28;20007;-72
2022/03/09 09:44:14;;;;;;;;;;;5.70;67.50;;;;;;5081355;28;20612;-72
2022/03/09 09:46:40;;;;;;;;;;;5.70;67.60;;;;;;5081758;28;19920;-72
2022/03/09 09:49:07;;;;;;;;;;;5.70;67.40;;;;;;5065344;28;19916;-72
2022/03/09 09:51:34;;;;;;;;;;;5.80;67.30;;;;;;5063991;28;20390;-72
2022/03/09 09:53:59;;;;;;;;;;;5.70;67.00;;;;;;5087998;28;20034;-72
2022/03/09 09:56:25;;;;;;;;;;;5.80;67.30;;;;;;5080731;28;20002;-72
2022/03/09 09:58:50;;;;;;;;;;;5.80;67.20;;;;;;5065322;28;20392;-71
2022/03/09 10:01:17;;;;;;;;;;;5.80;67.10;;;;;;5064806;28;20547;-71
2022/03/09 10:03:43;;;;;;;;;;;5.80;67.30;;;;;;5084631;28;19912;-72
2022/03/09 10:06:08;;;;;;;;;;;5.90;67.20;;;;;;5082679;28;19920;-72
2022/03/09 10:08:35;;;;;;;;;;;5.90;67.20;;;;;;5084662;28;19908;-72
2022/03/09 10:11:01;;;;;;;;;;;5.90;67.20;;;;;;5080812;28;19920;-72
2022/03/09 10:13:28;;;;;;;;;;;5.90;67.20;;;;;;5084609;28;19916;-72
2022/03/09 10:16:15;;;;;;;;;;;5.90;67.10;;;;;;5082042;28;19952;-72
2022/03/09 10:18:50;;;;;;;;;;;6.00;67.00;;;;;;5083456;28;20341;-72
2022/03/09 10:21:20;;;;;;;;;;;6.00;67.00;;;;;;5077146;28;20257;-71
2022/03/09 10:23:54;;;;;;;;;;;6.00;66.90;;;;;;5084622;28;20530;-72
2022/03/09 10:26:22;;;;;;;;;;;6.10;66.90;;;;;;5079758;28;19916;-72
2022/03/09 10:29:17;;;;;;;;;;;6.10;67.00;;;;;;5084423;28;19947;-71
2022/03/09 10:31:44;;;;;;;;;;;6.10;66.70;;;;;;5056683;28;19927;-72
2022/03/09 10:34:09;;;;;;;;;;;6.20;66.60;;;;;;5081718;28;19915;-71
2022/03/09 10:36:35;;;;;;;;;;;6.20;66.30;;;;;;5079267;28;19920;-71
2022/03/09 10:39:14;;;;;;;;;;;6.30;66.50;;;;;;5084462;28;19916;-71
2022/03/09 10:41:40;;;;;;;;;;;6.30;66.30;;;;;;5080400;28;20461;-72
2022/03/09 10:44:06;;;;;;;;;;;6.30;65.70;;;;;;5084237;28;20007;-72
2022/03/09 10:46:58;;;;;;;;;;;6.40;65.50;;;;;;5079133;28;19920;-71
2022/03/09 10:49:24;;;;;;;;;;;6.40;64.90;;;;;;5081463;28;19916;-74
2022/03/09 10:51:51;;;;;;;;;;;6.50;65.00;;;;;;5080680;28;19919;-71
2022/03/09 10:54:22;;;;;;;;;;;6.50;65.20;;;;;;5085197;28;19912;-72
2022/03/09 10:56:48;;;;;;;;;;;6.60;65.20;;;;;;5063230;28;19935;-72
2022/03/09 10:59:19;;;;;;;;;;;6.60;65.30;;;;;;5064721;28;19916;-72
2022/03/09 11:02:01;;;;;;;;;;;6.70;65.30;;;;;;5083811;28;19932;-72
2022/03/09 11:04:27;;;;;;;;;;;6.80;65.00;;;;;;5083451;28;19915;-72
2022/03/09 11:06:54;;;;;;;;;;;6.90;64.90;;;;;;5081688;28;20296;-71
2022/03/09 11:09:20;;;;;;;;;;;6.90;64.70;;;;;;5082533;28;19987;-72
2022/03/09 11:11:46;;;;;;;;;;;7.00;64.50;;;;;;5083673;28;20035;-71
2022/03/09 11:14:12;;;;;;;;;;;7.10;64.40;;;;;;5086352;28;19908;-72
2022/03/09 11:16:38;;;;;;;;;;;7.20;64.10;;;;;;5085950;28;19916;-72
2022/03/09 11:19:04;;;;;;;;;;;7.20;63.30;;;;;;5081279;28;19912;-72
2022/03/09 11:21:29;;;;;;;;;;;7.40;63.80;;;;;;5085868;28;19920;-72
2022/03/09 11:23:56;;;;;;;;;;;7.40;63.40;;;;;;5085673;28;19912;-72
2022/03/09 11:26:27;;;;;;;;;;;7.50;64.00;;;;;;5085859;28;19926;-72
2022/03/09 11:29:00;;;;;;;;;;;7.70;64.00;;;;;;5086322;28;20681;-72
2022/03/09 11:31:41;;;;;;;;;;;7.70;63.90;;;;;;5087318;28;19919;-72
2022/03/09 11:34:06;;;;;;;;;;;7.90;63.80;;;;;;5085958;28;20650;-72
2022/03/09 11:36:33;;;;;;;;;;;8.00;64.00;;;;;;5085401;28;19921;-72
2022/03/09 11:39:04;;;;;;;;;;;8.10;63.60;;;;;;5084488;28;19920;-72
2022/03/09 11:41:35;;;;;;;;;;;8.30;63.40;;;;;;5085353;28;19927;-72
2022/03/09 11:44:19;;;;;;;;;;;8.40;63.40;;;;;;5084727;28;19928;-71
2022/03/09 11:46:57;;;;;;;;;;;8.50;63.30;;;;;;5085600;28;19920;-72
2022/03/09 11:49:22;;;;;;;;;;;8.70;63.40;;;;;;5086442;28;19932;-72
2022/03/09 11:52:07;;;;;;;;;;;8.80;63.80;;;;;;5067254;28;19989;-72
2022/03/09 11:54:43;;;;;;;;;;;8.90;63.10;;;;;;5084236;28;19939;-72
2022/03/09 11:57:09;;;;;;;;;;;9.10;63.10;;;;;;5068225;28;21675;-72
2022/03/09 11:59:35;;;;;;;;;;;9.20;63.30;;;;;;5085521;28;20018;-72
2022/03/09 12:02:00;;;;;;;;;;;9.30;63.50;;;;;;5086607;28;20001;-72
2022/03/09 12:04:53;;;;;;;;;;;9.40;63.40;;;;;;5084319;28;19919;-72
2022/03/09 12:07:45;;;;;;;;;;;9.50;63.40;;;;;;5084785;28;20011;-71
2022/03/09 12:10:11;;;;;;;;;;;9.60;63.00;;;;;;5077454;28;19951;-72
2022/03/09 12:12:38;;;;;;;;;;;9.70;63.30;;;;;;5068165;28;19951;-72
2022/03/09 12:15:05;;;;;;;;;;;9.80;63.60;;;;;;5082140;28;19985;-72
2022/03/09 12:17:31;;;;;;;;;;;9.80;63.60;;;;;;5085748;28;19908;-71
2022/03/09 12:20:15;;;;;;;;;;;9.90;63.70;;;;;;5086150;28;20369;-72
2022/03/09 12:22:56;;;;;;;;;;;9.90;63.40;;;;;;5086684;28;19916;-72
2022/03/09 12:25:40;;;;;;;;;;;10.10;63.50;;;;;;5082407;28;19923;-71
2022/03/09 12:28:32;;;;;;;;;;;10.10;63.70;;;;;;5087352;28;19915;-71
2022/03/09 12:30:57;;;;;;;;;;;10.20;63.50;;;;;;5055269;28;19923;-71
2022/03/09 12:33:23;;;;;;;;;;;10.20;63.70;;;;;;5085384;28;20554;-72
2022/03/09 12:35:48;;;;;;;;;;;10.30;64.20;;;;;;5081864;28;19947;-72
2022/03/09 12:38:14;;;;;;;;;;;10.40;63.90;;;;;;5087892;28;19919;-71
2022/03/09 12:40:40;;;;;;;;;;;10.40;63.70;;;;;;5085204;28;19923;-71
2022/03/09 12:43:05;;;;;;;;;;;10.50;63.60;;;;;;5066109;28;19934;-71
2022/03/09 12:45:50;;;;;;;;;;;10.50;63.30;;;;;;5085964;28;19989;-72
2022/03/09 12:48:19;;;;;;;;;;;10.50;64.30;;;;;;5084002;28;20529;-71
2022/03/09 12:50:44;;;;;;;;;;;10.50;63.70;;;;;;5084599;28;19922;-71
2022/03/09 12:53:10;;;;;;;;;;;10.60;63.30;;;;;;5084171;28;20384;-72
2022/03/09 12:55:36;;;;;;;;;;;10.70;63.70;;;;;;5081398;28;19923;-71
2022/03/09 12:58:02;;;;;;;;;;;10.70;63.60;;;;;;5084650;28;19916;-71
2022/03/09 13:00:30;;;;;;;;;;;10.70;63.30;;;;;;5085005;28;19927;-71
2022/03/09 13:02:55;;;;;;;;;;;10.80;63.90;;;;;;5083372;28;19912;-71
2022/03/09 13:05:22;;;;;;;;;;;10.80;64.10;;;;;;5086508;28;19920;-72
2022/03/09 13:08:01;;;;;;;;;;;10.80;63.70;;;;;;5084561;28;19967;-71
2022/03/09 13:10:28;;;;;;;;;;;10.80;64.10;;;;;;5083253;28;19984;-72
2022/03/09 13:12:56;;;;;;;;;;;10.90;63.90;;;;;;5084112;28;19954;-71
2022/03/09 13:15:33;;;;;;;;;;;10.90;63.60;;;;;;5081139;28;19916;-71
2022/03/09 13:17:58;;;;;;;;;;;10.90;64.00;;;;;;5083227;28;19976;-71
2022/03/09 13:20:24;;;;;;;;;;;10.90;64.00;;;;;;5085549;28;20566;-71
2022/03/09 13:22:49;;;;;;;;;;;11.00;63.90;;;;;;5083203;28;19916;-71
2022/03/09 13:25:15;;;;;;;;;;;11.00;63.80;;;;;;5085788;28;19991;-71
2022/03/09 13:27:41;;;;;;;;;;;11.00;63.70;;;;;;5084540;28;19961;-71
2022/03/09 13:30:18;;;;;;;;;;;11.00;64.40;;;;;;5081624;28;19916;-71
2022/03/09 13:32:44;;;;;;;;;;;11.10;63.60;;;;;;5084567;28;19916;-72
2022/03/09 13:35:15;;;;;;;;;;;11.10;63.50;;;;;;5082480;28;20387;-71
2022/03/09 13:37:41;;;;;;;;;;;11.10;63.20;;;;;;5086312;28;20418;-71
2022/03/09 13:40:08;;;;;;;;;;;11.10;63.70;;;;;;5083080;28;20011;-71
2022/03/09 13:42:36;;;;;;;;;;;11.20;63.60;;;;;;5085015;28;19916;-71
2022/03/09 13:45:07;;;;;;;;;;;11.20;63.40;;;;;;5082626;28;19912;-71
2022/03/09 13:48:05;;;;;;;;;;;11.20;63.40;;;;;;5084715;28;19969;-71
2022/03/09 13:50:32;;;;;;;;;;;11.20;62.90;;;;;;5045278;28;19912;-71
2022/03/09 13:53:07;;;;;;;;;;;11.30;63.00;;;;;;5085811;28;20343;-71
2022/03/09 13:55:52;;;;;;;;;;;11.30;62.70;;;;;;5081383;28;20002;-71
2022/03/09 13:58:23;;;;;;;;;;;11.30;63.00;;;;;;5084818;28;19947;-71
2022/03/09 14:00:49;;;;;;;;;;;11.30;63.30;;;;;;5082319;28;19946;-71
2022/03/09 14:03:15;;;;;;;;;;;11.40;63.70;;;;;;5085723;28;19912;-71
2022/03/09 14:05:44;;;;;;;;;;;11.40;63.50;;;;;;5080998;28;20563;-72
2022/03/09 14:08:21;;;;;;;;;;;11.40;64.00;;;;;;5087152;28;19908;-71
2022/03/09 14:10:47;;;;;;;;;;;11.40;63.70;;;;;;5082142;28;19916;-72
2022/03/09 14:13:14;;;;;;;;;;;11.50;64.30;;;;;;5085284;28;19923;-72
2022/03/09 14:15:40;;;;;;;;;;;11.50;63.40;;;;;;5063681;28;19947;-71
2022/03/09 14:18:06;;;;;;;;;;;11.50;63.70;;;;;;5085628;28;19912;-71
2022/03/09 14:20:31;;;;;;;;;;;11.50;63.90;;;;;;5080342;28;19927;-71
2022/03/09 14:22:57;;;;;;;;;;;11.50;63.60;;;;;;5085970;28;19912;-71
2022/03/09 14:25:23;;;;;;;;;;;11.50;64.30;;;;;;5081483;28;19920;-71
2022/03/09 14:27:51;;;;;;;;;;;11.50;64.30;;;;;;5085155;28;19916;-72